sensor_id;sensor_type;location;lat;lon;timestamp;P1;durP1;ratioP1;P2;durP2;ratioP2
45806;SDS011;31507;51.494;7.518;2023-04-06T00:00:57;14.93;;;8.45;;
45806;SDS011;31507;51.494;7.518;2023-04-06T00:03:22;17.10;;;8.70;;
45806;SDS011;31507;51.494;7.518;2023-04-06T00:05:48;19.75;;;8.88;;
45806;SDS011;31507;51.494;7.518;2023-04-06T00:08:14;19.63;;;8.85;;
45806;SDS011;31507;51.494;7.518;2023-04-06T00:10:40;19.92;;;8.70;;
45806;SDS011;31507;51.494;7.518;2023-04-06T00:13:06;16.63;;;8.90;;
45806;SDS011;31507;51.494;7.518;2023-04-06T00:15:32;15.52;;;9.05;;
45806;SDS011;31507;51.494;7.518;2023-04-06T00:17:58;13.65;;;8.60;;
45806;SDS011;31507;51.494;7.518;2023-04-06T00:20:24;17.38;;;9.20;;
45806;SDS011;31507;51.494;7.518;2023-04-06T00:22:50;14.65;;;8.73;;
45806;SDS011;31507;51.494;7.518;2023-04-06T00:25:16;19.05;;;8.85;;
45806;SDS011;31507;51.494;7.518;2023-04-06T00:27:41;15.30;;;8.77;;
45806;SDS011;31507;51.494;7.518;2023-04-06T00:30:08;17.02;;;9.13;;
45806;SDS011;31507;51.494;7.518;2023-04-06T00:32:34;16.02;;;8.70;;
45806;SDS011;31507;51.494;7.518;2023-04-06T00:35:02;14.50;;;8.00;;
45806;SDS011;31507;51.494;7.518;2023-04-06T00:37:28;18.95;;;8.93;;
45806;SDS011;31507;51.494;7.518;2023-04-06T00:39:53;14.95;;;8.77;;
45806;SDS011;31507;51.494;7.518;2023-04-06T00:42:19;16.65;;;9.13;;
45806;SDS011;31507;51.494;7.518;2023-04-06T00:44:57;12.40;;;8.68;;
45806;SDS011;31507;51.494;7.518;2023-04-06T00:47:24;21.33;;;8.93;;
45806;SDS011;31507;51.494;7.518;2023-04-06T00:49:51;15.43;;;8.52;;
45806;SDS011;31507;51.494;7.518;2023-04-06T00:52:18;17.55;;;9.65;;
45806;SDS011;31507;51.494;7.518;2023-04-06T00:54:44;20.88;;;9.90;;
45806;SDS011;31507;51.494;7.518;2023-04-06T00:57:13;17.60;;;9.68;;
45806;SDS011;31507;51.494;7.518;2023-04-06T00:59:39;16.75;;;9.18;;
45806;SDS011;31507;51.494;7.518;2023-04-06T01:02:06;15.77;;;9.77;;
45806;SDS011;31507;51.494;7.518;2023-04-06T01:04:32;14.38;;;9.15;;
45806;SDS011;31507;51.494;7.518;2023-04-06T01:06:58;20.42;;;10.07;;
45806;SDS011;31507;51.494;7.518;2023-04-06T01:09:24;14.15;;;8.52;;
45806;SDS011;31507;51.494;7.518;2023-04-06T01:11:50;18.67;;;9.30;;
45806;SDS011;31507;51.494;7.518;2023-04-06T01:14:15;13.98;;;8.65;;
45806;SDS011;31507;51.494;7.518;2023-04-06T01:16:41;13.98;;;7.97;;
45806;SDS011;31507;51.494;7.518;2023-04-06T01:19:08;13.60;;;7.13;;
45806;SDS011;31507;51.494;7.518;2023-04-06T01:21:35;10.75;;;7.28;;
45806;SDS011;31507;51.494;7.518;2023-04-06T01:24:04;14.60;;;7.05;;
45806;SDS011;31507;51.494;7.518;2023-04-06T01:26:31;11.25;;;6.95;;
45806;SDS011;31507;51.494;7.518;2023-04-06T01:28:57;20.27;;;7.80;;
45806;SDS011;31507;51.494;7.518;2023-04-06T01:31:23;11.63;;;7.32;;
45806;SDS011;31507;51.494;7.518;2023-04-06T01:33:49;15.45;;;7.47;;
45806;SDS011;31507;51.494;7.518;2023-04-06T01:36:16;10.60;;;6.82;;
45806;SDS011;31507;51.494;7.518;2023-04-06T01:38:41;11.63;;;6.68;;
45806;SDS011;31507;51.494;7.518;2023-04-06T01:41:08;14.50;;;6.28;;
45806;SDS011;31507;51.494;7.518;2023-04-06T01:43:34;10.98;;;6.63;;
45806;SDS011;31507;51.494;7.518;2023-04-06T01:46:00;10.07;;;5.88;;
45806;SDS011;31507;51.494;7.518;2023-04-06T01:48:26;11.65;;;6.72;;
45806;SDS011;31507;51.494;7.518;2023-04-06T01:50:53;14.80;;;6.10;;
45806;SDS011;31507;51.494;7.518;2023-04-06T01:53:19;10.52;;;6.32;;
45806;SDS011;31507;51.494;7.518;2023-04-06T01:55:45;12.25;;;6.30;;
45806;SDS011;31507;51.494;7.518;2023-04-06T01:58:10;12.13;;;5.50;;
45806;SDS011;31507;51.494;7.518;2023-04-06T02:00:36;10.88;;;6.65;;
45806;SDS011;31507;51.494;7.518;2023-04-06T02:03:02;8.90;;;5.57;;
45806;SDS011;31507;51.494;7.518;2023-04-06T02:05:29;8.82;;;5.97;;
45806;SDS011;31507;51.494;7.518;2023-04-06T02:07:55;9.20;;;5.70;;
45806;SDS011;31507;51.494;7.518;2023-04-06T02:10:21;9.18;;;5.97;;
45806;SDS011;31507;51.494;7.518;2023-04-06T02:12:47;11.00;;;5.78;;
45806;SDS011;31507;51.494;7.518;2023-04-06T02:15:13;10.75;;;5.95;;
45806;SDS011;31507;51.494;7.518;2023-04-06T02:17:40;8.68;;;5.60;;
45806;SDS011;31507;51.494;7.518;2023-04-06T02:20:06;9.18;;;5.78;;
45806;SDS011;31507;51.494;7.518;2023-04-06T02:22:32;11.15;;;5.60;;
45806;SDS011;31507;51.494;7.518;2023-04-06T02:24:58;7.40;;;5.70;;
45806;SDS011;31507;51.494;7.518;2023-04-06T02:27:24;12.30;;;5.65;;
45806;SDS011;31507;51.494;7.518;2023-04-06T02:29:50;11.45;;;5.47;;
45806;SDS011;31507;51.494;7.518;2023-04-06T02:32:16;12.00;;;5.60;;
45806;SDS011;31507;51.494;7.518;2023-04-06T02:34:41;8.52;;;5.82;;
45806;SDS011;31507;51.494;7.518;2023-04-06T02:37:07;13.05;;;6.63;;
45806;SDS011;31507;51.494;7.518;2023-04-06T02:39:32;15.13;;;5.72;;
45806;SDS011;31507;51.494;7.518;2023-04-06T02:41:58;15.70;;;6.15;;
45806;SDS011;31507;51.494;7.518;2023-04-06T02:44:24;9.35;;;5.93;;
45806;SDS011;31507;51.494;7.518;2023-04-06T02:46:49;11.55;;;6.15;;
45806;SDS011;31507;51.494;7.518;2023-04-06T02:49:15;10.77;;;6.25;;
45806;SDS011;31507;51.494;7.518;2023-04-06T02:51:41;8.63;;;5.28;;
45806;SDS011;31507;51.494;7.518;2023-04-06T02:54:07;9.38;;;5.72;;
45806;SDS011;31507;51.494;7.518;2023-04-06T02:56:32;11.07;;;6.07;;
45806;SDS011;31507;51.494;7.518;2023-04-06T02:58:58;13.63;;;5.40;;
45806;SDS011;31507;51.494;7.518;2023-04-06T03:01:24;10.27;;;6.95;;
45806;SDS011;31507;51.494;7.518;2023-04-06T03:03:51;9.52;;;6.60;;
45806;SDS011;31507;51.494;7.518;2023-04-06T03:06:16;11.40;;;6.30;;
45806;SDS011;31507;51.494;7.518;2023-04-06T03:08:42;14.13;;;5.80;;
45806;SDS011;31507;51.494;7.518;2023-04-06T03:11:07;10.75;;;6.45;;
45806;SDS011;31507;51.494;7.518;2023-04-06T03:13:33;10.77;;;5.85;;
45806;SDS011;31507;51.494;7.518;2023-04-06T03:15:59;8.32;;;5.78;;
45806;SDS011;31507;51.494;7.518;2023-04-06T03:18:25;12.20;;;6.88;;
45806;SDS011;31507;51.494;7.518;2023-04-06T03:20:51;11.18;;;6.25;;
45806;SDS011;31507;51.494;7.518;2023-04-06T03:23:19;10.73;;;6.05;;
45806;SDS011;31507;51.494;7.518;2023-04-06T03:25:46;10.70;;;6.00;;
45806;SDS011;31507;51.494;7.518;2023-04-06T03:28:11;10.20;;;6.20;;
45806;SDS011;31507;51.494;7.518;2023-04-06T03:30:37;9.02;;;5.47;;
45806;SDS011;31507;51.494;7.518;2023-04-06T03:33:03;10.93;;;6.25;;
45806;SDS011;31507;51.494;7.518;2023-04-06T03:35:29;12.48;;;6.18;;
45806;SDS011;31507;51.494;7.518;2023-04-06T03:37:54;12.68;;;9.05;;
45806;SDS011;31507;51.494;7.518;2023-04-06T03:40:20;17.55;;;11.32;;
45806;SDS011;31507;51.494;7.518;2023-04-06T03:42:46;12.30;;;7.07;;
45806;SDS011;31507;51.494;7.518;2023-04-06T03:45:11;15.40;;;7.57;;
45806;SDS011;31507;51.494;7.518;2023-04-06T03:47:40;11.25;;;6.53;;
45806;SDS011;31507;51.494;7.518;2023-04-06T03:50:06;12.43;;;6.75;;
45806;SDS011;31507;51.494;7.518;2023-04-06T03:52:32;12.48;;;7.18;;
45806;SDS011;31507;51.494;7.518;2023-04-06T03:54:57;9.75;;;6.35;;
45806;SDS011;31507;51.494;7.518;2023-04-06T03:57:23;13.57;;;6.63;;
45806;SDS011;31507;51.494;7.518;2023-04-06T03:59:48;9.00;;;5.68;;
45806;SDS011;31507;51.494;7.518;2023-04-06T04:02:14;12.02;;;6.45;;
45806;SDS011;31507;51.494;7.518;2023-04-06T04:04:40;10.10;;;6.57;;
45806;SDS011;31507;51.494;7.518;2023-04-06T04:07:06;14.45;;;6.22;;
45806;SDS011;31507;51.494;7.518;2023-04-06T04:09:31;11.60;;;6.68;;
45806;SDS011;31507;51.494;7.518;2023-04-06T04:11:57;10.15;;;6.10;;
45806;SDS011;31507;51.494;7.518;2023-04-06T04:14:22;14.23;;;7.15;;
45806;SDS011;31507;51.494;7.518;2023-04-06T04:16:48;14.02;;;8.27;;
45806;SDS011;31507;51.494;7.518;2023-04-06T04:19:14;10.38;;;6.35;;
45806;SDS011;31507;51.494;7.518;2023-04-06T04:21:43;10.75;;;6.25;;
45806;SDS011;31507;51.494;7.518;2023-04-06T04:24:10;13.48;;;7.45;;
45806;SDS011;31507;51.494;7.518;2023-04-06T04:26:36;14.30;;;8.38;;
45806;SDS011;31507;51.494;7.518;2023-04-06T04:29:03;15.82;;;7.40;;
45806;SDS011;31507;51.494;7.518;2023-04-06T04:31:29;13.02;;;7.50;;
45806;SDS011;31507;51.494;7.518;2023-04-06T04:33:54;18.00;;;9.05;;
45806;SDS011;31507;51.494;7.518;2023-04-06T04:36:20;16.13;;;9.18;;
45806;SDS011;31507;51.494;7.518;2023-04-06T04:38:45;12.73;;;7.75;;
45806;SDS011;31507;51.494;7.518;2023-04-06T04:41:11;13.43;;;6.63;;
45806;SDS011;31507;51.494;7.518;2023-04-06T04:43:37;15.65;;;6.50;;
45806;SDS011;31507;51.494;7.518;2023-04-06T04:46:03;13.45;;;6.00;;
45806;SDS011;31507;51.494;7.518;2023-04-06T04:48:29;12.77;;;6.03;;
45806;SDS011;31507;51.494;7.518;2023-04-06T04:50:55;13.77;;;5.78;;
45806;SDS011;31507;51.494;7.518;2023-04-06T04:53:21;10.80;;;5.85;;
45806;SDS011;31507;51.494;7.518;2023-04-06T04:55:47;9.65;;;6.75;;
45806;SDS011;31507;51.494;7.518;2023-04-06T04:58:12;9.27;;;6.43;;
45806;SDS011;31507;51.494;7.518;2023-04-06T05:00:41;13.38;;;7.35;;
45806;SDS011;31507;51.494;7.518;2023-04-06T05:03:07;13.63;;;7.15;;
45806;SDS011;31507;51.494;7.518;2023-04-06T05:05:34;8.35;;;5.95;;
45806;SDS011;31507;51.494;7.518;2023-04-06T05:08:00;10.02;;;6.15;;
45806;SDS011;31507;51.494;7.518;2023-04-06T05:10:26;10.10;;;6.10;;
45806;SDS011;31507;51.494;7.518;2023-04-06T05:12:52;13.18;;;5.90;;
45806;SDS011;31507;51.494;7.518;2023-04-06T05:15:18;11.20;;;6.07;;
45806;SDS011;31507;51.494;7.518;2023-04-06T05:17:43;8.05;;;5.28;;
45806;SDS011;31507;51.494;7.518;2023-04-06T05:20:09;9.70;;;5.93;;
45806;SDS011;31507;51.494;7.518;2023-04-06T05:22:35;11.32;;;5.55;;
45806;SDS011;31507;51.494;7.518;2023-04-06T05:25:01;9.32;;;5.70;;
45806;SDS011;31507;51.494;7.518;2023-04-06T05:27:28;14.73;;;5.47;;
45806;SDS011;31507;51.494;7.518;2023-04-06T05:29:54;7.82;;;5.05;;
45806;SDS011;31507;51.494;7.518;2023-04-06T05:32:19;9.73;;;5.38;;
45806;SDS011;31507;51.494;7.518;2023-04-06T05:34:47;10.95;;;6.20;;
45806;SDS011;31507;51.494;7.518;2023-04-06T05:37:14;9.77;;;5.78;;
45806;SDS011;31507;51.494;7.518;2023-04-06T05:39:40;7.63;;;4.90;;
45806;SDS011;31507;51.494;7.518;2023-04-06T05:42:06;11.45;;;6.10;;
45806;SDS011;31507;51.494;7.518;2023-04-06T05:44:32;7.53;;;5.95;;
45806;SDS011;31507;51.494;7.518;2023-04-06T05:46:58;11.90;;;5.88;;
45806;SDS011;31507;51.494;7.518;2023-04-06T05:49:23;8.18;;;5.40;;
45806;SDS011;31507;51.494;7.518;2023-04-06T05:51:49;12.25;;;6.00;;
45806;SDS011;31507;51.494;7.518;2023-04-06T05:54:15;19.50;;;8.20;;
45806;SDS011;31507;51.494;7.518;2023-04-06T05:56:40;11.75;;;7.60;;
45806;SDS011;31507;51.494;7.518;2023-04-06T05:59:06;11.43;;;6.50;;
45806;SDS011;31507;51.494;7.518;2023-04-06T06:01:32;10.80;;;6.22;;
45806;SDS011;31507;51.494;7.518;2023-04-06T06:04:00;9.63;;;5.75;;
45806;SDS011;31507;51.494;7.518;2023-04-06T06:06:27;10.32;;;5.97;;
45806;SDS011;31507;51.494;7.518;2023-04-06T06:08:55;12.02;;;5.72;;
45806;SDS011;31507;51.494;7.518;2023-04-06T06:11:24;11.30;;;5.95;;
45806;SDS011;31507;51.494;7.518;2023-04-06T06:13:50;9.23;;;4.97;;
45806;SDS011;31507;51.494;7.518;2023-04-06T06:16:16;9.93;;;5.75;;
45806;SDS011;31507;51.494;7.518;2023-04-06T06:18:43;12.13;;;5.15;;
45806;SDS011;31507;51.494;7.518;2023-04-06T06:21:08;11.40;;;5.95;;
45806;SDS011;31507;51.494;7.518;2023-04-06T06:23:34;12.13;;;5.45;;
45806;SDS011;31507;51.494;7.518;2023-04-06T06:26:00;8.02;;;5.65;;
45806;SDS011;31507;51.494;7.518;2023-04-06T06:28:26;11.30;;;6.00;;
45806;SDS011;31507;51.494;7.518;2023-04-06T06:30:52;12.30;;;5.15;;
45806;SDS011;31507;51.494;7.518;2023-04-06T06:33:17;13.93;;;6.05;;
45806;SDS011;31507;51.494;7.518;2023-04-06T06:35:43;8.20;;;5.35;;
45806;SDS011;31507;51.494;7.518;2023-04-06T06:38:09;9.88;;;6.43;;
45806;SDS011;31507;51.494;7.518;2023-04-06T06:40:35;14.88;;;5.57;;
45806;SDS011;31507;51.494;7.518;2023-04-06T06:43:00;16.15;;;5.57;;
45806;SDS011;31507;51.494;7.518;2023-04-06T06:45:26;9.68;;;5.10;;
45806;SDS011;31507;51.494;7.518;2023-04-06T06:47:52;9.70;;;5.20;;
45806;SDS011;31507;51.494;7.518;2023-04-06T06:50:17;9.27;;;5.22;;
45806;SDS011;31507;51.494;7.518;2023-04-06T06:52:43;14.38;;;5.30;;
45806;SDS011;31507;51.494;7.518;2023-04-06T06:55:09;9.82;;;5.40;;
45806;SDS011;31507;51.494;7.518;2023-04-06T06:57:35;8.07;;;5.45;;
45806;SDS011;31507;51.494;7.518;2023-04-06T07:00:02;8.07;;;5.07;;
45806;SDS011;31507;51.494;7.518;2023-04-06T07:02:30;7.57;;;5.25;;
45806;SDS011;31507;51.494;7.518;2023-04-06T07:04:55;10.77;;;5.20;;
45806;SDS011;31507;51.494;7.518;2023-04-06T07:07:21;10.45;;;5.43;;
45806;SDS011;31507;51.494;7.518;2023-04-06T07:09:47;7.28;;;4.68;;
45806;SDS011;31507;51.494;7.518;2023-04-06T07:12:13;9.65;;;5.47;;
45806;SDS011;31507;51.494;7.518;2023-04-06T07:14:38;7.40;;;4.80;;
45806;SDS011;31507;51.494;7.518;2023-04-06T07:17:04;6.97;;;4.72;;
45806;SDS011;31507;51.494;7.518;2023-04-06T07:19:30;8.68;;;5.00;;
45806;SDS011;31507;51.494;7.518;2023-04-06T07:21:55;10.32;;;4.97;;
45806;SDS011;31507;51.494;7.518;2023-04-06T07:24:21;10.00;;;5.18;;
45806;SDS011;31507;51.494;7.518;2023-04-06T07:26:47;8.55;;;4.97;;
45806;SDS011;31507;51.494;7.518;2023-04-06T07:29:12;10.65;;;5.18;;
45806;SDS011;31507;51.494;7.518;2023-04-06T07:31:38;8.07;;;5.13;;
45806;SDS011;31507;51.494;7.518;2023-04-06T07:34:04;7.72;;;4.80;;
45806;SDS011;31507;51.494;7.518;2023-04-06T07:36:30;10.68;;;5.65;;
45806;SDS011;31507;51.494;7.518;2023-04-06T07:38:55;8.05;;;5.15;;
45806;SDS011;31507;51.494;7.518;2023-04-06T07:41:21;8.18;;;4.68;;
45806;SDS011;31507;51.494;7.518;2023-04-06T07:43:47;11.82;;;5.70;;
45806;SDS011;31507;51.494;7.518;2023-04-06T07:46:13;10.23;;;5.57;;
45806;SDS011;31507;51.494;7.518;2023-04-06T07:48:38;12.10;;;5.20;;
45806;SDS011;31507;51.494;7.518;2023-04-06T07:51:05;11.30;;;5.28;;
45806;SDS011;31507;51.494;7.518;2023-04-06T07:53:31;8.18;;;4.82;;
45806;SDS011;31507;51.494;7.518;2023-04-06T07:56:00;10.60;;;5.45;;
45806;SDS011;31507;51.494;7.518;2023-04-06T07:58:25;11.98;;;5.50;;
45806;SDS011;31507;51.494;7.518;2023-04-06T08:00:51;8.88;;;5.38;;
45806;SDS011;31507;51.494;7.518;2023-04-06T08:03:17;9.13;;;5.43;;
45806;SDS011;31507;51.494;7.518;2023-04-06T08:05:45;11.02;;;5.05;;
45806;SDS011;31507;51.494;7.518;2023-04-06T08:08:11;11.20;;;5.40;;
45806;SDS011;31507;51.494;7.518;2023-04-06T08:10:36;12.35;;;5.07;;
45806;SDS011;31507;51.494;7.518;2023-04-06T08:13:02;9.45;;;5.32;;
45806;SDS011;31507;51.494;7.518;2023-04-06T08:15:28;6.75;;;5.30;;
45806;SDS011;31507;51.494;7.518;2023-04-06T08:17:53;7.80;;;5.28;;
45806;SDS011;31507;51.494;7.518;2023-04-06T08:20:22;9.32;;;5.32;;
45806;SDS011;31507;51.494;7.518;2023-04-06T08:22:47;10.88;;;5.85;;
45806;SDS011;31507;51.494;7.518;2023-04-06T08:25:13;7.95;;;5.82;;
45806;SDS011;31507;51.494;7.518;2023-04-06T08:27:39;9.73;;;5.32;;
45806;SDS011;31507;51.494;7.518;2023-04-06T08:30:05;11.35;;;5.43;;
45806;SDS011;31507;51.494;7.518;2023-04-06T08:32:31;11.90;;;6.32;;
45806;SDS011;31507;51.494;7.518;2023-04-06T08:34:56;9.57;;;5.70;;
45806;SDS011;31507;51.494;7.518;2023-04-06T08:37:22;10.18;;;6.10;;
45806;SDS011;31507;51.494;7.518;2023-04-06T08:39:48;8.43;;;6.13;;
45806;SDS011;31507;51.494;7.518;2023-04-06T08:42:16;10.85;;;6.32;;
45806;SDS011;31507;51.494;7.518;2023-04-06T08:44:49;12.70;;;5.95;;
45806;SDS011;31507;51.494;7.518;2023-04-06T08:47:17;10.68;;;6.55;;
45806;SDS011;31507;51.494;7.518;2023-04-06T08:49:43;9.45;;;6.07;;
45806;SDS011;31507;51.494;7.518;2023-04-06T08:52:11;9.20;;;6.28;;
45806;SDS011;31507;51.494;7.518;2023-04-06T08:54:37;7.85;;;5.80;;
45806;SDS011;31507;51.494;7.518;2023-04-06T08:57:03;10.60;;;6.95;;
45806;SDS011;31507;51.494;7.518;2023-04-06T08:59:31;11.70;;;7.03;;
45806;SDS011;31507;51.494;7.518;2023-04-06T09:01:57;8.60;;;6.68;;
45806;SDS011;31507;51.494;7.518;2023-04-06T09:04:27;9.73;;;7.55;;
45806;SDS011;31507;51.494;7.518;2023-04-06T09:06:53;11.35;;;7.32;;
45806;SDS011;31507;51.494;7.518;2023-04-06T09:09:18;11.00;;;7.72;;
45806;SDS011;31507;51.494;7.518;2023-04-06T09:11:48;13.40;;;7.72;;
45806;SDS011;31507;51.494;7.518;2023-04-06T09:14:15;13.10;;;8.50;;
45806;SDS011;31507;51.494;7.518;2023-04-06T09:16:42;15.23;;;8.95;;
45806;SDS011;31507;51.494;7.518;2023-04-06T09:19:09;11.90;;;7.80;;
45806;SDS011;31507;51.494;7.518;2023-04-06T09:21:35;12.98;;;8.38;;
45806;SDS011;31507;51.494;7.518;2023-04-06T09:24:02;12.63;;;7.70;;
45806;SDS011;31507;51.494;7.518;2023-04-06T09:26:28;14.13;;;7.75;;
45806;SDS011;31507;51.494;7.518;2023-04-06T09:28:54;13.00;;;7.80;;
45806;SDS011;31507;51.494;7.518;2023-04-06T09:31:25;13.52;;;8.23;;
45806;SDS011;31507;51.494;7.518;2023-04-06T09:33:55;13.95;;;8.25;;
45806;SDS011;31507;51.494;7.518;2023-04-06T09:36:31;10.65;;;7.55;;
45806;SDS011;31507;51.494;7.518;2023-04-06T09:39:00;12.38;;;8.07;;
45806;SDS011;31507;51.494;7.518;2023-04-06T09:46:32;11.98;;;7.40;;
45806;SDS011;31507;51.494;7.518;2023-04-06T09:49:02;19.00;;;9.20;;
45806;SDS011;31507;51.494;7.518;2023-04-06T09:51:34;12.57;;;8.73;;
45806;SDS011;31507;51.494;7.518;2023-04-06T09:54:02;10.55;;;7.80;;
45806;SDS011;31507;51.494;7.518;2023-04-06T09:59:08;11.20;;;7.68;;
45806;SDS011;31507;51.494;7.518;2023-04-06T10:01:38;12.23;;;8.23;;
45806;SDS011;31507;51.494;7.518;2023-04-06T10:04:10;17.05;;;7.90;;
45806;SDS011;31507;51.494;7.518;2023-04-06T10:06:46;13.05;;;8.10;;
45806;SDS011;31507;51.494;7.518;2023-04-06T10:09:17;12.77;;;7.97;;
45806;SDS011;31507;51.494;7.518;2023-04-06T10:11:47;12.73;;;9.23;;
45806;SDS011;31507;51.494;7.518;2023-04-06T10:14:13;14.38;;;8.98;;
45806;SDS011;31507;51.494;7.518;2023-04-06T10:16:40;14.10;;;10.15;;
45806;SDS011;31507;51.494;7.518;2023-04-06T10:19:10;15.68;;;9.93;;
45806;SDS011;31507;51.494;7.518;2023-04-06T10:21:40;16.70;;;10.85;;
45806;SDS011;31507;51.494;7.518;2023-04-06T10:24:10;15.75;;;10.88;;
45806;SDS011;31507;51.494;7.518;2023-04-06T10:26:38;16.60;;;11.30;;
45806;SDS011;31507;51.494;7.518;2023-04-06T10:29:05;21.63;;;12.45;;
45806;SDS011;31507;51.494;7.518;2023-04-06T10:31:31;21.90;;;12.93;;
45806;SDS011;31507;51.494;7.518;2023-04-06T10:34:00;19.80;;;13.23;;
45806;SDS011;31507;51.494;7.518;2023-04-06T10:36:31;20.20;;;12.00;;
45806;SDS011;31507;51.494;7.518;2023-04-06T10:38:59;16.45;;;11.38;;
45806;SDS011;31507;51.494;7.518;2023-04-06T10:41:33;18.02;;;12.68;;
45806;SDS011;31507;51.494;7.518;2023-04-06T10:44:00;19.13;;;13.13;;
45806;SDS011;31507;51.494;7.518;2023-04-06T10:46:27;18.30;;;13.15;;
45806;SDS011;31507;51.494;7.518;2023-04-06T10:48:56;18.35;;;12.75;;
45806;SDS011;31507;51.494;7.518;2023-04-06T10:51:26;25.15;;;15.20;;
45806;SDS011;31507;51.494;7.518;2023-04-06T10:53:54;19.55;;;14.52;;
45806;SDS011;31507;51.494;7.518;2023-04-06T10:56:23;18.23;;;13.07;;
45806;SDS011;31507;51.494;7.518;2023-04-06T10:58:52;20.10;;;13.27;;
45806;SDS011;31507;51.494;7.518;2023-04-06T11:01:21;19.38;;;13.60;;
45806;SDS011;31507;51.494;7.518;2023-04-06T11:03:54;20.08;;;13.63;;
45806;SDS011;31507;51.494;7.518;2023-04-06T11:06:21;19.23;;;13.10;;
45806;SDS011;31507;51.494;7.518;2023-04-06T11:08:49;17.40;;;12.40;;
45806;SDS011;31507;51.494;7.518;2023-04-06T11:11:16;17.73;;;14.18;;
45806;SDS011;31507;51.494;7.518;2023-04-06T11:16:18;16.20;;;11.65;;
45806;SDS011;31507;51.494;7.518;2023-04-06T11:18:56;15.35;;;12.15;;
45806;SDS011;31507;51.494;7.518;2023-04-06T11:26:38;16.05;;;11.30;;
45806;SDS011;31507;51.494;7.518;2023-04-06T11:29:09;24.20;;;11.98;;
45806;SDS011;31507;51.494;7.518;2023-04-06T11:31:42;19.58;;;11.43;;
45806;SDS011;31507;51.494;7.518;2023-04-06T11:34:12;14.80;;;11.65;;
45806;SDS011;31507;51.494;7.518;2023-04-06T11:36:42;14.05;;;10.73;;
45806;SDS011;31507;51.494;7.518;2023-04-06T11:39:09;14.13;;;10.95;;
45806;SDS011;31507;51.494;7.518;2023-04-06T11:41:36;18.83;;;11.77;;
45806;SDS011;31507;51.494;7.518;2023-04-06T11:44:01;14.15;;;11.23;;
45806;SDS011;31507;51.494;7.518;2023-04-06T11:46:28;16.05;;;11.55;;
45806;SDS011;31507;51.494;7.518;2023-04-06T11:48:57;19.65;;;12.30;;
45806;SDS011;31507;51.494;7.518;2023-04-06T11:51:24;16.90;;;11.88;;
45806;SDS011;31507;51.494;7.518;2023-04-06T11:53:51;16.38;;;12.00;;
45806;SDS011;31507;51.494;7.518;2023-04-06T11:56:50;20.55;;;12.88;;
45806;SDS011;31507;51.494;7.518;2023-04-06T11:59:11;14.85;;;11.73;;
45806;SDS011;31507;51.494;7.518;2023-04-06T12:01:44;15.77;;;12.45;;
45806;SDS011;31507;51.494;7.518;2023-04-06T12:04:10;18.27;;;12.63;;
45806;SDS011;31507;51.494;7.518;2023-04-06T12:06:36;19.70;;;12.60;;
45806;SDS011;31507;51.494;7.518;2023-04-06T12:09:01;17.80;;;12.52;;
45806;SDS011;31507;51.494;7.518;2023-04-06T12:11:27;18.90;;;13.43;;
45806;SDS011;31507;51.494;7.518;2023-04-06T12:13:53;20.83;;;14.30;;
45806;SDS011;31507;51.494;7.518;2023-04-06T12:16:18;19.65;;;14.40;;
45806;SDS011;31507;51.494;7.518;2023-04-06T12:18:44;18.08;;;13.88;;
45806;SDS011;31507;51.494;7.518;2023-04-06T12:21:10;22.27;;;14.98;;
45806;SDS011;31507;51.494;7.518;2023-04-06T12:23:35;20.00;;;13.82;;
45806;SDS011;31507;51.494;7.518;2023-04-06T12:26:02;19.65;;;15.32;;
45806;SDS011;31507;51.494;7.518;2023-04-06T12:28:28;19.02;;;14.32;;
45806;SDS011;31507;51.494;7.518;2023-04-06T12:30:54;17.10;;;13.88;;
45806;SDS011;31507;51.494;7.518;2023-04-06T12:33:20;19.92;;;14.35;;
45806;SDS011;31507;51.494;7.518;2023-04-06T12:35:46;23.42;;;13.85;;
45806;SDS011;31507;51.494;7.518;2023-04-06T12:38:12;19.08;;;14.52;;
45806;SDS011;31507;51.494;7.518;2023-04-06T12:40:38;18.95;;;13.45;;
45806;SDS011;31507;51.494;7.518;2023-04-06T12:43:04;20.48;;;13.40;;
45806;SDS011;31507;51.494;7.518;2023-04-06T12:45:31;20.35;;;14.55;;
45806;SDS011;31507;51.494;7.518;2023-04-06T12:47:56;18.23;;;13.40;;
45806;SDS011;31507;51.494;7.518;2023-04-06T12:50:22;16.85;;;11.80;;
45806;SDS011;31507;51.494;7.518;2023-04-06T12:52:48;16.02;;;12.55;;
45806;SDS011;31507;51.494;7.518;2023-04-06T12:55:14;14.38;;;10.85;;
45806;SDS011;31507;51.494;7.518;2023-04-06T12:57:40;14.32;;;11.02;;
45806;SDS011;31507;51.494;7.518;2023-04-06T13:00:06;17.00;;;11.70;;
45806;SDS011;31507;51.494;7.518;2023-04-06T13:02:33;15.35;;;10.88;;
45806;SDS011;31507;51.494;7.518;2023-04-06T13:04:59;15.77;;;11.38;;
45806;SDS011;31507;51.494;7.518;2023-04-06T13:07:25;17.20;;;11.20;;
45806;SDS011;31507;51.494;7.518;2023-04-06T13:09:51;12.98;;;9.93;;
45806;SDS011;31507;51.494;7.518;2023-04-06T13:12:16;16.55;;;10.40;;
45806;SDS011;31507;51.494;7.518;2023-04-06T13:14:43;16.15;;;10.63;;
45806;SDS011;31507;51.494;7.518;2023-04-06T13:17:08;16.63;;;10.88;;
45806;SDS011;31507;51.494;7.518;2023-04-06T13:19:34;13.85;;;10.23;;
45806;SDS011;31507;51.494;7.518;2023-04-06T13:22:00;14.73;;;9.65;;
45806;SDS011;31507;51.494;7.518;2023-04-06T13:24:26;11.93;;;10.32;;
45806;SDS011;31507;51.494;7.518;2023-04-06T13:26:51;13.70;;;10.40;;
45806;SDS011;31507;51.494;7.518;2023-04-06T13:29:17;15.73;;;10.73;;
45806;SDS011;31507;51.494;7.518;2023-04-06T13:31:42;13.10;;;10.65;;
45806;SDS011;31507;51.494;7.518;2023-04-06T13:34:08;14.15;;;9.20;;
45806;SDS011;31507;51.494;7.518;2023-04-06T13:36:34;16.25;;;10.40;;
45806;SDS011;31507;51.494;7.518;2023-04-06T13:38:59;12.82;;;9.57;;
45806;SDS011;31507;51.494;7.518;2023-04-06T13:41:25;14.35;;;8.93;;
45806;SDS011;31507;51.494;7.518;2023-04-06T13:43:51;11.27;;;9.20;;
45806;SDS011;31507;51.494;7.518;2023-04-06T13:46:17;12.15;;;9.23;;
45806;SDS011;31507;51.494;7.518;2023-04-06T13:48:43;13.35;;;8.55;;
45806;SDS011;31507;51.494;7.518;2023-04-06T13:51:12;12.32;;;9.05;;
45806;SDS011;31507;51.494;7.518;2023-04-06T13:53:39;12.43;;;8.63;;
45806;SDS011;31507;51.494;7.518;2023-04-06T13:56:05;12.65;;;8.68;;
45806;SDS011;31507;51.494;7.518;2023-04-06T13:58:32;15.18;;;10.52;;
45806;SDS011;31507;51.494;7.518;2023-04-06T14:01:01;13.63;;;9.65;;
45806;SDS011;31507;51.494;7.518;2023-04-06T14:03:32;14.93;;;9.05;;
45806;SDS011;31507;51.494;7.518;2023-04-06T14:05:58;14.02;;;9.38;;
45806;SDS011;31507;51.494;7.518;2023-04-06T14:08:24;15.07;;;8.68;;
45806;SDS011;31507;51.494;7.518;2023-04-06T14:10:50;10.63;;;8.30;;
45806;SDS011;31507;51.494;7.518;2023-04-06T14:13:16;9.18;;;6.95;;
45806;SDS011;31507;51.494;7.518;2023-04-06T14:15:42;6.53;;;4.82;;
45806;SDS011;31507;51.494;7.518;2023-04-06T14:18:08;10.52;;;5.45;;
45806;SDS011;31507;51.494;7.518;2023-04-06T14:20:34;6.43;;;4.97;;
45806;SDS011;31507;51.494;7.518;2023-04-06T14:23:03;7.43;;;4.40;;
45806;SDS011;31507;51.494;7.518;2023-04-06T14:25:28;8.52;;;5.55;;
45806;SDS011;31507;51.494;7.518;2023-04-06T14:27:59;9.25;;;5.55;;
45806;SDS011;31507;51.494;7.518;2023-04-06T14:30:24;7.43;;;4.55;;
45806;SDS011;31507;51.494;7.518;2023-04-06T14:32:51;11.38;;;5.50;;
45806;SDS011;31507;51.494;7.518;2023-04-06T14:35:16;10.30;;;5.45;;
45806;SDS011;31507;51.494;7.518;2023-04-06T14:37:42;7.78;;;4.90;;
45806;SDS011;31507;51.494;7.518;2023-04-06T14:40:08;8.82;;;5.05;;
45806;SDS011;31507;51.494;7.518;2023-04-06T14:42:35;9.38;;;6.28;;
45806;SDS011;31507;51.494;7.518;2023-04-06T14:45:00;9.57;;;6.10;;